Time;durP1;ratioP1;P1;durP2;ratioP2;P2;SDS_P1;SDS_P2;PMS_P1;PMS_P2;Temp;Humidity;BMP_temperature;BMP_pressure;BME280_temperature;BME280_humidity;BME280_pressure;Samples;Min_cycle;Max_cycle;Signal;HPM_P1;HPM_P2
2023/12/04 10:48:37;;;;;;;3.15;2.47;;;;;;;;;;5100417;27;20432;-64
2023/12/04 10:51:05;;;;;;;2.55;2.35;;;;;;;;;;5106858;28;20054;-66
2023/12/04 10:53:30;;;;;;;2.47;2.28;;;;;;;;;;5108849;28;20024;-67
2023/12/04 10:55:58;;;;;;;2.83;2.40;;;;;;;;;;5108612;28;20028;-68
2023/12/04 10:58:26;;;;;;;4.72;2.35;;;;;;;;;;5107364;28;20365;-67
2023/12/04 11:00:54;;;;;;;13.18;2.53;;;;;;;;;;5094169;28;20024;-68
2023/12/04 11:03:43;;;;;;;3.05;2.10;;;;;;;;;;5088188;28;20024;-67
2023/12/04 11:06:11;;;;;;;2.65;2.45;;;;;;;;;;5086977;28;20070;-67
2023/12/04 11:08:39;;;;;;;10.88;2.53;;;;;;;;;;5069890;28;20028;-66
2023/12/04 11:11:08;;;;;;;2.42;2.10;;;;;;;;;;5068334;28;20100;-68
2023/12/04 11:13:37;;;;;;;4.53;2.40;;;;;;;;;;5098598;28;20085;-69
2023/12/04 11:16:45;;;;;;;2.40;2.20;;;;;;;;;;5094733;28;20032;-66
2023/12/04 11:19:24;;;;;;;11.48;2.50;;;;;;;;;;5087605;28;20071;-67
2023/12/04 11:21:50;;;;;;;3.50;2.22;;;;;;;;;;5087884;28;20023;-66
2023/12/04 11:24:18;;;;;;;2.58;2.30;;;;;;;;;;5080735;28;20024;-67
2023/12/04 11:26:44;;;;;;;5.03;2.50;;;;;;;;;;5067790;28;20032;-67
2023/12/04 11:29:11;;;;;;;3.60;2.50;;;;;;;;;;5077340;28;20480;-70
2023/12/04 11:31:37;;;;;;;3.13;2.33;;;;;;;;;;5069799;28;20048;-68
2023/12/04 11:34:04;;;;;;;2.47;2.28;;;;;;;;;;5107324;28;20475;-73
2023/12/04 11:36:29;;;;;;;4.85;2.40;;;;;;;;;;5107761;28;20054;-66
2023/12/04 11:38:56;;;;;;;4.53;2.42;;;;;;;;;;5107727;28;20543;-70
2023/12/04 11:41:25;;;;;;;2.47;2.22;;;;;;;;;;5089246;28;20074;-72
2023/12/04 11:43:51;;;;;;;3.22;2.30;;;;;;;;;;5066934;28;20682;-69
2023/12/04 11:46:25;;;;;;;2.30;2.10;;;;;;;;;;5066599;28;20031;-67
2023/12/04 11:48:54;;;;;;;2.58;2.38;;;;;;;;;;5087636;28;20119;-67
2023/12/04 11:51:42;;;;;;;2.20;2.00;;;;;;;;;;5087162;28;20035;-66
2023/12/04 11:54:13;;;;;;;2.67;2.28;;;;;;;;;;5072996;28;20048;-66
2023/12/04 11:56:39;;;;;;;2.58;2.38;;;;;;;;;;5087395;28;20031;-68
2023/12/04 11:59:06;;;;;;;2.38;2.10;;;;;;;;;;5066699;28;20033;-68
2023/12/04 12:01:37;;;;;;;3.92;2.38;;;;;;;;;;5053535;28;20030;-66
2023/12/04 12:04:10;;;;;;;3.58;2.20;;;;;;;;;;5053863;28;20033;-67
2023/12/04 12:06:35;;;;;;;7.93;2.42;;;;;;;;;;5053642;28;20372;-67
2023/12/04 12:09:01;;;;;;;2.60;2.40;;;;;;;;;;5053448;28;20090;-67
2023/12/04 12:11:27;;;;;;;8.55;2.53;;;;;;;;;;5053375;28;20811;-67
2023/12/04 12:13:55;;;;;;;5.38;2.13;;;;;;;;;;5053623;28;20183;-66
2023/12/04 12:16:20;;;;;;;5.70;2.65;;;;;;;;;;5064123;28;20024;-66
2023/12/04 12:18:47;;;;;;;2.80;2.20;;;;;;;;;;5076272;28;20044;-66
2023/12/04 12:21:12;;;;;;;2.40;2.13;;;;;;;;;;5072843;28;20077;-67
2023/12/04 12:23:38;;;;;;;4.35;2.17;;;;;;;;;;5073458;28;20021;-67
2023/12/04 12:26:04;;;;;;;3.60;2.25;;;;;;;;;;5073154;28;20362;-67
2023/12/04 12:28:30;;;;;;;2.90;2.05;;;;;;;;;;5073239;28;20052;-68
2023/12/04 12:30:55;;;;;;;4.97;2.53;;;;;;;;;;5073112;28;20028;-66
2023/12/04 12:33:23;;;;;;;2.40;2.20;;;;;;;;;;5078996;28;20028;-67
2023/12/04 12:35:49;;;;;;;2.97;2.33;;;;;;;;;;5093070;28;20032;-68
2023/12/04 12:38:15;;;;;;;2.58;2.20;;;;;;;;;;5092950;28;20032;-67
2023/12/04 12:40:41;;;;;;;3.63;2.47;;;;;;;;;;5083028;28;20028;-70
2023/12/04 12:43:08;;;;;;;3.60;2.42;;;;;;;;;;5071348;28;20380;-71
2023/12/04 12:45:44;;;;;;;2.60;2.40;;;;;;;;;;5071277;28;20036;-69
2023/12/04 12:48:14;;;;;;;2.55;2.35;;;;;;;;;;5071837;28;20263;-69
2023/12/04 12:50:41;;;;;;;3.92;3.10;;;;;;;;;;5072195;28;20041;-69
2023/12/04 12:53:06;;;;;;;5.75;3.20;;;;;;;;;;5072795;28;20036;-69
2023/12/04 12:55:32;;;;;;;3.67;3.10;;;;;;;;;;5072358;28;20412;-69
2023/12/04 12:57:57;;;;;;;7.78;3.25;;;;;;;;;;5072655;28;20029;-69
2023/12/04 13:00:23;;;;;;;3.80;3.50;;;;;;;;;;5072746;28;20028;-69
2023/12/04 13:02:53;;;;;;;3.70;3.30;;;;;;;;;;5072324;28;20066;-68
2023/12/04 13:05:19;;;;;;;3.72;3.13;;;;;;;;;;5054476;28;20029;-69
2023/12/04 13:07:45;;;;;;;4.65;3.33;;;;;;;;;;5072293;28;20031;-68
2023/12/04 13:10:11;;;;;;;3.60;3.22;;;;;;;;;;5071374;28;20066;-68
2023/12/04 13:12:37;;;;;;;3.72;3.42;;;;;;;;;;5072350;28;20477;-68
2023/12/04 13:15:03;;;;;;;4.15;3.30;;;;;;;;;;5072685;28;20364;-68
2023/12/04 13:17:29;;;;;;;5.57;3.20;;;;;;;;;;5071895;28;20028;-68
2023/12/04 13:19:54;;;;;;;5.70;3.78;;;;;;;;;;5072299;28;20108;-67
2023/12/04 13:22:20;;;;;;;4.90;3.40;;;;;;;;;;5071918;28;20553;-68
2023/12/04 13:24:46;;;;;;;5.05;3.67;;;;;;;;;;5071262;28;20461;-68
2023/12/04 13:27:11;;;;;;;5.47;3.38;;;;;;;;;;5071562;28;20024;-68
2023/12/04 13:29:37;;;;;;;4.20;3.40;;;;;;;;;;5071742;28;20111;-68
2023/12/04 13:32:04;;;;;;;3.92;3.35;;;;;;;;;;5071976;28;20040;-68
2023/12/04 13:34:29;;;;;;;3.75;3.45;;;;;;;;;;5071659;28;20033;-68
2023/12/04 13:36:55;;;;;;;4.07;3.30;;;;;;;;;;5071864;28;20079;-68
2023/12/04 13:39:27;;;;;;;4.30;3.72;;;;;;;;;;5071576;28;20496;-68
2023/12/04 13:44:37;;;;;;;3.60;3.30;;;;;;;;;;5071793;28;20035;-68
2023/12/04 13:47:03;;;;;;;4.78;3.08;;;;;;;;;;5071235;28;20056;-68
2023/12/04 13:49:28;;;;;;;3.53;3.22;;;;;;;;;;5071432;28;20027;-68
2023/12/04 13:51:55;;;;;;;3.30;3.00;;;;;;;;;;5071380;28;20024;-68
2023/12/04 13:54:26;;;;;;;3.95;3.42;;;;;;;;;;5071236;28;20033;-68
2023/12/04 13:56:56;;;;;;;3.65;3.35;;;;;;;;;;5071136;28;20457;-68
2023/12/04 13:59:21;;;;;;;;;;;;;;;;;;5071879;28;20029;-68
2023/12/04 14:01:49;;;;;;;3.38;3.08;;;;;;;;;;5071287;28;20786;-69
2023/12/04 14:04:15;;;;;;;6.03;3.40;;;;;;;;;;5070901;28;20035;-68
2023/12/04 14:06:41;;;;;;;4.75;3.30;;;;;;;;;;5063563;28;20033;-72
2023/12/04 14:09:13;;;;;;;3.83;3.50;;;;;;;;;;5070952;28;20070;-67
2023/12/04 14:11:41;;;;;;;3.60;3.30;;;;;;;;;;5071046;28;20660;-68
2023/12/04 14:14:07;;;;;;;4.30;3.50;;;;;;;;;;5070950;28;20036;-67
2023/12/04 14:16:33;;;;;;;3.53;3.17;;;;;;;;;;5069701;28;20475;-67
2023/12/04 14:18:58;;;;;;;4.80;3.58;;;;;;;;;;5082906;28;20028;-67
2023/12/04 14:21:24;;;;;;;3.70;3.33;;;;;;;;;;5083520;28;20132;-67
2023/12/04 14:23:50;;;;;;;3.88;3.17;;;;;;;;;;5072019;28;20028;-67
2023/12/04 14:26:16;;;;;;;4.80;3.45;;;;;;;;;;5069534;28;20396;-67
2023/12/04 14:28:41;;;;;;;4.82;3.20;;;;;;;;;;5077624;28;20028;-68
2023/12/04 14:31:07;;;;;;;4.13;3.40;;;;;;;;;;5086790;28;20030;-68
2023/12/04 14:33:33;;;;;;;6.10;4.82;;;;;;;;;;5091068;28;20397;-68
2023/12/04 14:35:59;;;;;;;4.93;3.40;;;;;;;;;;5087546;28;20032;-67
2023/12/04 14:38:25;;;;;;;6.97;3.40;;;;;;;;;;5090770;28;20032;-68
2023/12/04 14:40:50;;;;;;;3.95;3.40;;;;;;;;;;5091304;28;20062;-68
2023/12/04 14:43:16;;;;;;;8.45;3.75;;;;;;;;;;5090838;28;20054;-72
2023/12/04 14:45:42;;;;;;;3.70;3.30;;;;;;;;;;5090925;28;20024;-67
2023/12/04 14:48:07;;;;;;;4.82;3.20;;;;;;;;;;5090793;28;20478;-67
2023/12/04 14:50:37;;;;;;;5.18;4.03;;;;;;;;;;5091154;28;20024;-66
2023/12/04 14:53:18;;;;;;;6.75;3.47;;;;;;;;;;5090848;28;20024;-72
2023/12/04 15:20:20;;;;;;;4.72;3.47;;;;;;;;;;5090722;28;20035;-68
2023/12/04 15:22:42;;;;;;;6.47;4.00;;;;;;;;;;5090438;28;20028;-68
2023/12/04 15:25:11;;;;;;;5.40;3.60;;;;;;;;;;5090590;28;20535;-67
2023/12/04 15:27:37;;;;;;;4.72;3.55;;;;;;;;;;5083944;28;20107;-68
2023/12/04 15:30:03;;;;;;;4.75;3.88;;;;;;;;;;5070345;28;20568;-67
2023/12/04 15:32:29;;;;;;;4.45;3.30;;;;;;;;;;5068974;28;20070;-68
2023/12/04 15:34:54;;;;;;;4.90;3.55;;;;;;;;;;5070250;28;20032;-67
2023/12/04 15:37:20;;;;;;;6.18;3.45;;;;;;;;;;5073918;28;20032;-67
2023/12/04 15:39:45;;;;;;;10.57;3.80;;;;;;;;;;5073927;28;20028;-67
2023/12/04 15:42:11;;;;;;;7.35;3.55;;;;;;;;;;5074136;28;20059;-67
2023/12/04 15:44:36;;;;;;;6.15;4.03;;;;;;;;;;5055271;28;20052;-68
2023/12/04 15:47:02;;;;;;;10.10;4.45;;;;;;;;;;5053820;28;20135;-67
2023/12/04 15:49:27;;;;;;;8.50;4.00;;;;;;;;;;5053676;28;20120;-67
2023/12/04 15:51:53;;;;;;;6.82;4.20;;;;;;;;;;5053844;28;20024;-67
2023/12/04 15:54:18;;;;;;;6.88;4.05;;;;;;;;;;5056841;28;20036;-69
2023/12/04 15:56:44;;;;;;;7.50;3.92;;;;;;;;;;5058565;28;20488;-68
2023/12/04 15:59:09;;;;;;;5.65;4.28;;;;;;;;;;5053615;28;20029;-73
2023/12/04 16:01:35;;;;;;;11.65;3.90;;;;;;;;;;5053444;28;20029;-68
2023/12/04 16:04:00;;;;;;;8.35;4.10;;;;;;;;;;5053388;28;20039;-68
2023/12/04 16:06:26;;;;;;;6.85;4.05;;;;;;;;;;5053490;28;20683;-70
2023/12/04 16:08:52;;;;;;;7.07;4.25;;;;;;;;;;5053058;28;20028;-68
2023/12/04 16:11:20;;;;;;;7.13;4.00;;;;;;;;;;5052977;28;20087;-69
2023/12/04 16:13:46;;;;;;;10.55;4.47;;;;;;;;;;5053270;28;20025;-69
2023/12/04 16:16:12;;;;;;;8.18;4.40;;;;;;;;;;5053470;28;20025;-68
2023/12/04 16:18:38;;;;;;;14.85;4.13;;;;;;;;;;5052962;28;20507;-68
2023/12/04 16:21:04;;;;;;;14.13;5.90;;;;;;;;;;5053251;28;20048;-68
2023/12/04 16:23:29;;;;;;;18.70;9.35;;;;;;;;;;5052597;28;20048;-68
2023/12/04 16:25:55;;;;;;;32.72;12.52;;;;;;;;;;5052844;28;20036;-70
2023/12/04 16:28:22;;;;;;;26.17;12.07;;;;;;;;;;5053063;28;20029;-68
2023/12/04 16:30:48;;;;;;;30.95;16.48;;;;;;;;;;5053128;28;20025;-69
2023/12/04 16:33:13;;;;;;;39.90;16.85;;;;;;;;;;5052894;28;20569;-69
2023/12/04 16:35:39;;;;;;;26.25;15.23;;;;;;;;;;5052979;28;20100;-69
2023/12/04 16:38:05;;;;;;;26.52;13.65;;;;;;;;;;5052714;28;20037;-70
2023/12/04 16:40:31;;;;;;;26.75;13.55;;;;;;;;;;5052565;28;20108;-69
2023/12/04 16:42:56;;;;;;;29.25;14.80;;;;;;;;;;5052672;28;20108;-71
2023/12/04 16:45:22;;;;;;;29.50;12.57;;;;;;;;;;5052825;28;20116;-73
2023/12/04 16:47:47;;;;;;;21.98;12.02;;;;;;;;;;5052250;28;20127;-71
2023/12/04 16:50:13;;;;;;;23.48;11.65;;;;;;;;;;5052676;28;20485;-74
2023/12/04 16:52:39;;;;;;;23.92;12.60;;;;;;;;;;5052574;28;20031;-72
2023/12/04 16:55:05;;;;;;;24.00;12.10;;;;;;;;;;5052020;28;20035;-72
2023/12/04 16:57:31;;;;;;;19.35;11.63;;;;;;;;;;5052545;28;20025;-75
2023/12/04 16:59:56;;;;;;;22.30;11.20;;;;;;;;;;5052537;28;20032;-70
2023/12/04 17:02:23;;;;;;;26.60;11.30;;;;;;;;;;5052349;28;20150;-73
2023/12/04 17:04:49;;;;;;;19.05;11.07;;;;;;;;;;5052302;28;20107;-71
2023/12/04 17:07:14;;;;;;;17.52;10.18;;;;;;;;;;5052758;28;20124;-74
2023/12/04 17:09:40;;;;;;;19.20;11.02;;;;;;;;;;5051780;28;20443;-72
2023/12/04 17:12:06;;;;;;;21.92;10.07;;;;;;;;;;5052192;28;20031;-69
2023/12/04 17:14:31;;;;;;;17.90;9.95;;;;;;;;;;5052140;28;20029;-67
2023/12/04 17:16:57;;;;;;;16.00;9.60;;;;;;;;;;5052076;28;20111;-66
2023/12/04 17:19:22;;;;;;;15.95;9.73;;;;;;;;;;5051998;28;20028;-70
2023/12/04 17:21:48;;;;;;;18.67;8.90;;;;;;;;;;5052308;28;20074;-69
2023/12/04 17:24:13;;;;;;;18.90;9.27;;;;;;;;;;5051282;28;20096;-67
2023/12/04 17:26:39;;;;;;;19.65;9.27;;;;;;;;;;5051777;28;20040;-67
2023/12/04 17:29:04;;;;;;;15.48;9.35;;;;;;;;;;5051924;28;20033;-68
2023/12/04 17:31:30;;;;;;;14.73;8.70;;;;;;;;;;5051468;28;20029;-67
2023/12/04 17:33:55;;;;;;;15.25;8.50;;;;;;;;;;5051917;28;20032;-68
2023/12/04 17:36:21;;;;;;;18.63;8.57;;;;;;;;;;5052115;28;20028;-67
2023/12/04 17:38:47;;;;;;;18.00;8.75;;;;;;;;;;5050433;28;20481;-66
2023/12/04 17:41:13;;;;;;;14.88;8.63;;;;;;;;;;5051694;28;20040;-67
2023/12/04 17:43:39;;;;;;;12.55;8.23;;;;;;;;;;5051695;28;20112;-67
2023/12/04 17:46:06;;;;;;;14.13;8.25;;;;;;;;;;5050117;28;20025;-68
2023/12/04 17:48:32;;;;;;;11.98;8.23;;;;;;;;;;5067176;28;20052;-67
2023/12/04 17:50:57;;;;;;;15.05;8.23;;;;;;;;;;5071415;28;20024;-68
2023/12/04 17:53:23;;;;;;;12.23;8.38;;;;;;;;;;5070454;28;20111;-66
2023/12/04 17:55:48;;;;;;;18.30;7.93;;;;;;;;;;5070936;28;20120;-70
2023/12/04 17:58:14;;;;;;;12.57;8.18;;;;;;;;;;5070929;28;20031;-70
2023/12/04 18:00:41;;;;;;;11.65;7.40;;;;;;;;;;5070840;28;20067;-70
2023/12/04 18:03:07;;;;;;;12.18;7.43;;;;;;;;;;5069892;28;20042;-67
2023/12/04 18:05:32;;;;;;;15.00;7.40;;;;;;;;;;5071283;28;20039;-67
2023/12/04 18:07:58;;;;;;;11.85;7.15;;;;;;;;;;5070554;28;20025;-69
2023/12/04 18:10:23;;;;;;;13.10;6.70;;;;;;;;;;5071160;28;20029;-66
2023/12/04 18:12:49;;;;;;;12.65;7.05;;;;;;;;;;5071365;28;20701;-67
2023/12/04 18:15:15;;;;;;;13.45;7.18;;;;;;;;;;5071057;28;20033;-67
2023/12/04 18:17:43;;;;;;;13.93;6.78;;;;;;;;;;5070975;28;20036;-67
2023/12/04 18:20:10;;;;;;;16.63;7.30;;;;;;;;;;5070913;28;20477;-67
2023/12/04 18:22:35;;;;;;;12.13;6.95;;;;;;;;;;5070939;28;20021;-68
2023/12/04 18:25:02;;;;;;;11.02;6.22;;;;;;;;;;5069679;28;20039;-68
2023/12/04 18:27:29;;;;;;;11.68;6.50;;;;;;;;;;5070771;28;20443;-67
2023/12/04 18:29:55;;;;;;;13.85;6.80;;;;;;;;;;5076874;28;20472;-70
2023/12/04 18:32:20;;;;;;;12.57;6.15;;;;;;;;;;5078457;28;20032;-68
2023/12/04 18:34:46;;;;;;;18.23;6.85;;;;;;;;;;5088615;28;20144;-71
2023/12/04 18:37:25;;;;;;;10.45;6.72;;;;;;;;;;5090858;28;20035;-68
2023/12/04 18:39:52;;;;;;;14.13;7.72;;;;;;;;;;5090416;28;20024;-67
2023/12/04 18:42:18;;;;;;;16.08;8.00;;;;;;;;;;5089557;28;20020;-67
2023/12/04 18:44:44;;;;;;;15.13;7.97;;;;;;;;;;5090701;28;20035;-68
2023/12/04 18:47:18;;;;;;;18.67;8.43;;;;;;;;;;5090361;28;20048;-68
2023/12/04 18:49:52;;;;;;;14.95;8.75;;;;;;;;;;5091022;28;20548;-67
2023/12/04 18:52:18;;;;;;;15.27;9.52;;;;;;;;;;5090780;28;20043;-72
2023/12/04 18:54:44;;;;;;;12.15;9.75;;;;;;;;;;5090224;28;20028;-67
2023/12/04 18:57:12;;;;;;;14.18;10.00;;;;;;;;;;5090724;28;20020;-68
2023/12/04 18:59:38;;;;;;;15.10;10.65;;;;;;;;;;5090765;28;20056;-68
2023/12/04 19:02:04;;;;;;;18.83;11.23;;;;;;;;;;5085293;28;20117;-69
2023/12/04 19:04:33;;;;;;;15.77;11.02;;;;;;;;;;5075172;28;20031;-67
2023/12/04 19:07:00;;;;;;;23.10;11.73;;;;;;;;;;5078386;28;20099;-68
2023/12/04 19:09:25;;;;;;;18.27;11.95;;;;;;;;;;5078589;28;20044;-67
2023/12/04 19:11:51;;;;;;;18.83;12.13;;;;;;;;;;5081510;28;20016;-67
2023/12/04 19:14:16;;;;;;;16.30;10.80;;;;;;;;;;5075564;28;20078;-67
2023/12/04 19:16:42;;;;;;;18.85;12.40;;;;;;;;;;5074332;28;20024;-67
2023/12/04 19:19:08;;;;;;;19.45;11.13;;;;;;;;;;5074547;28;20024;-68
2023/12/04 19:21:33;;;;;;;86.05;14.15;;;;;;;;;;5073377;28;20031;-68
2023/12/04 19:23:59;;;;;;;97.25;14.65;;;;;;;;;;5074413;28;20156;-69
2023/12/04 19:26:24;;;;;;;70.43;13.95;;;;;;;;;;5074041;28;20020;-65
2023/12/04 19:28:50;;;;;;;73.65;15.25;;;;;;;;;;5074133;28;20797;-63
2023/12/04 19:31:15;;;;;;;94.13;14.40;;;;;;;;;;5074529;28;20035;-61
2023/12/04 19:33:41;;;;;;;59.22;12.32;;;;;;;;;;5074268;28;20025;-61
2023/12/04 19:36:07;;;;;;;60.28;11.80;;;;;;;;;;5074321;28;20074;-62
2023/12/04 19:38:33;;;;;;;52.33;11.73;;;;;;;;;;5074055;28;20373;-62
2023/12/04 19:40:58;;;;;;;40.25;11.05;;;;;;;;;;5073867;28;20082;-62
2023/12/04 19:43:24;;;;;;;38.95;11.70;;;;;;;;;;5076364;28;20036;-63
2023/12/04 19:45:49;;;;;;;36.50;10.52;;;;;;;;;;5082191;28;20024;-63
2023/12/04 19:48:15;;;;;;;33.22;9.98;;;;;;;;;;5090052;28;20056;-68
2023/12/04 19:50:41;;;;;;;55.72;13.73;;;;;;;;;;5093899;28;20039;-63
2023/12/04 19:53:07;;;;;;;41.03;9.45;;;;;;;;;;5093932;28;20046;-62
2023/12/04 19:55:33;;;;;;;33.13;9.82;;;;;;;;;;5093728;28;20081;-63
2023/12/04 19:57:58;;;;;;;45.83;9.32;;;;;;;;;;5093988;28;20082;-63
2023/12/04 20:00:24;;;;;;;36.08;10.13;;;;;;;;;;5094040;28;20122;-63
2023/12/04 20:02:50;;;;;;;33.88;9.00;;;;;;;;;;5092346;28;20391;-69
2023/12/04 20:05:15;;;;;;;38.70;9.25;;;;;;;;;;5093689;28;20047;-66
2023/12/04 20:07:41;;;;;;;31.90;8.65;;;;;;;;;;5093794;28;20028;-63
2023/12/04 20:10:07;;;;;;;26.50;8.02;;;;;;;;;;5093546;28;20031;-62
2023/12/04 20:12:32;;;;;;;33.47;8.70;;;;;;;;;;5093560;28;20028;-63
2023/12/04 20:14:58;;;;;;;28.80;8.43;;;;;;;;;;5093334;28;20039;-62
2023/12/04 20:17:24;;;;;;;34.90;8.48;;;;;;;;;;5093645;28;20032;-63
2023/12/04 20:19:49;;;;;;;24.33;7.57;;;;;;;;;;5093103;28;20107;-63
2023/12/04 20:22:16;;;;;;;19.90;7.40;;;;;;;;;;5093382;28;20103;-62
2023/12/04 20:24:44;;;;;;;31.40;7.47;;;;;;;;;;5093267;28;20031;-63
2023/12/04 20:27:11;;;;;;;16.55;7.65;;;;;;;;;;5090592;28;20020;-67
2023/12/04 20:29:36;;;;;;;17.27;7.72;;;;;;;;;;5072204;28;20060;-63
2023/12/04 20:32:02;;;;;;;34.20;7.80;;;;;;;;;;5071998;28;20024;-64
2023/12/04 20:34:29;;;;;;;27.58;7.60;;;;;;;;;;5072522;28;20096;-62
2023/12/04 20:36:55;;;;;;;24.38;6.72;;;;;;;;;;5072250;28;20476;-66
2023/12/04 20:39:22;;;;;;;37.75;8.55;;;;;;;;;;5070923;28;20069;-62
2023/12/04 20:41:48;;;;;;;19.48;8.00;;;;;;;;;;5072348;28;20032;-62
2023/12/04 20:44:14;;;;;;;23.48;7.25;;;;;;;;;;5072729;28;20214;-62
2023/12/04 20:46:42;;;;;;;15.48;6.65;;;;;;;;;;5072391;28;20124;-62
2023/12/04 20:49:08;;;;;;;18.25;6.78;;;;;;;;;;5073020;28;20033;-67
2023/12/04 20:51:33;;;;;;;18.98;6.68;;;;;;;;;;5072569;28;20103;-63
2023/12/04 20:53:59;;;;;;;18.42;6.50;;;;;;;;;;5072597;28;20029;-66
2023/12/04 20:56:24;;;;;;;15.90;6.07;;;;;;;;;;5072553;28;20062;-66
2023/12/04 20:58:52;;;;;;;29.65;6.57;;;;;;;;;;5072567;28;20032;-65
2023/12/04 21:01:18;;;;;;;17.60;7.20;;;;;;;;;;5072670;28;20048;-66
2023/12/04 21:03:44;;;;;;;17.77;7.00;;;;;;;;;;5072066;28;20035;-65
2023/12/04 21:06:09;;;;;;;20.25;6.93;;;;;;;;;;5072413;28;20025;-67
2023/12/04 21:08:35;;;;;;;20.92;6.65;;;;;;;;;;5070977;28;20029;-65
2023/12/04 21:11:01;;;;;;;20.35;6.15;;;;;;;;;;5072327;28;20082;-65
2023/12/04 21:13:26;;;;;;;13.43;6.57;;;;;;;;;;5072485;28;20021;-66
2023/12/04 21:15:52;;;;;;;13.18;5.95;;;;;;;;;;5072298;28;20391;-65
2023/12/04 21:18:17;;;;;;;21.83;6.22;;;;;;;;;;5058052;28;20558;-66
2023/12/04 21:20:44;;;;;;;13.65;5.93;;;;;;;;;;5052395;28;20104;-65
2023/12/04 21:23:10;;;;;;;14.50;6.90;;;;;;;;;;5052139;28;20540;-67
2023/12/04 21:25:36;;;;;;;11.98;5.28;;;;;;;;;;5050787;28;20119;-69
2023/12/04 21:28:03;;;;;;;16.05;6.25;;;;;;;;;;5064563;28;20056;-64
2023/12/04 21:30:30;;;;;;;15.80;6.13;;;;;;;;;;5071101;28;20111;-67
2023/12/04 21:32:56;;;;;;;15.65;6.10;;;;;;;;;;5070750;28;20035;-67
2023/12/04 21:35:22;;;;;;;17.13;6.38;;;;;;;;;;5071409;28;20066;-65
2023/12/04 21:37:47;;;;;;;13.63;5.82;;;;;;;;;;5071065;28;20056;-65
2023/12/04 21:40:13;;;;;;;12.98;5.90;;;;;;;;;;5071508;28;20033;-67
2023/12/04 21:42:40;;;;;;;14.25;6.57;;;;;;;;;;5071607;28;20031;-66
2023/12/04 21:45:06;;;;;;;11.60;5.53;;;;;;;;;;5071901;28;20096;-64
2023/12/04 21:47:35;;;;;;;15.07;6.10;;;;;;;;;;5071295;28;20055;-64
2023/12/04 21:50:01;;;;;;;10.90;5.63;;;;;;;;;;5071505;28;20031;-63
2023/12/04 21:52:27;;;;;;;14.55;5.53;;;;;;;;;;5071381;28;20111;-63
2023/12/04 21:54:52;;;;;;;20.27;5.63;;;;;;;;;;5071423;28;20032;-66
2023/12/04 21:57:18;;;;;;;17.00;5.43;;;;;;;;;;5071408;28;20047;-66
2023/12/04 21:59:43;;;;;;;11.07;5.07;;;;;;;;;;5071603;28;20380;-66
2023/12/04 22:02:09;;;;;;;16.42;5.50;;;;;;;;;;5071249;28;20034;-65
2023/12/04 22:04:35;;;;;;;17.23;6.90;;;;;;;;;;5071428;28;20024;-67
2023/12/04 22:07:00;;;;;;;15.18;5.10;;;;;;;;;;5071346;28;20028;-67
2023/12/04 22:09:26;;;;;;;16.40;5.63;;;;;;;;;;5071176;28;20401;-65
2023/12/04 22:11:51;;;;;;;16.98;6.20;;;;;;;;;;5071181;28;20029;-67
2023/12/04 22:14:17;;;;;;;10.70;5.47;;;;;;;;;;5071018;28;20051;-67
2023/12/04 22:16:43;;;;;;;12.88;5.20;;;;;;;;;;5071077;28;20021;-67
2023/12/04 22:19:08;;;;;;;19.60;7.13;;;;;;;;;;5070952;28;20034;-66
2023/12/04 22:21:34;;;;;;;10.80;5.88;;;;;;;;;;5071038;28;20480;-66
2023/12/04 22:23:59;;;;;;;22.05;5.60;;;;;;;;;;5070909;28;20063;-67
2023/12/04 22:26:25;;;;;;;11.88;5.07;;;;;;;;;;5070829;28;20028;-67
2023/12/04 22:28:52;;;;;;;8.00;5.25;;;;;;;;;;5069464;28;20029;-67
2023/12/04 22:31:17;;;;;;;12.32;5.63;;;;;;;;;;5070806;28;20780;-67
2023/12/04 22:33:43;;;;;;;9.55;5.15;;;;;;;;;;5072044;28;20021;-67
2023/12/04 22:36:10;;;;;;;10.13;5.20;;;;;;;;;;5072373;28;20376;-66
2023/12/04 22:38:38;;;;;;;12.07;5.38;;;;;;;;;;5072214;28;20118;-67
2023/12/04 22:41:04;;;;;;;13.43;5.55;;;;;;;;;;5070841;28;20027;-67
2023/12/04 22:43:29;;;;;;;9.43;5.45;;;;;;;;;;5072148;28;20108;-67
2023/12/04 22:45:55;;;;;;;11.23;5.00;;;;;;;;;;5072159;28;20056;-67
2023/12/04 22:48:21;;;;;;;9.35;5.65;;;;;;;;;;5071871;28;20056;-67
2023/12/04 22:50:46;;;;;;;16.90;5.38;;;;;;;;;;5072270;28;20028;-67
2023/12/04 22:53:12;;;;;;;9.48;4.90;;;;;;;;;;5071891;28;20077;-66
2023/12/04 22:55:37;;;;;;;16.05;5.40;;;;;;;;;;5072172;28;20028;-67
2023/12/04 22:58:03;;;;;;;9.80;5.00;;;;;;;;;;5072061;28;20036;-66
